createdAt,value
2023-02-14T00:01:11.719Z,21.41
2023-02-14T00:03:38.093Z,21.41
2023-02-14T00:06:04.433Z,21.44
2023-02-14T00:08:30.815Z,21.43
2023-02-14T00:10:57.380Z,21.41
2023-02-14T00:13:23.923Z,21.43
2023-02-14T00:15:50.387Z,21.42
2023-02-14T00:18:18.431Z,21.42
2023-02-14T00:20:45.834Z,21.37
2023-02-14T00:23:12.156Z,21.43
2023-02-14T00:25:38.465Z,21.45
2023-02-14T00:28:04.786Z,21.41
2023-02-14T00:30:31.201Z,21.40
2023-02-14T00:32:57.695Z,21.39
2023-02-14T00:35:24.108Z,21.42
2023-02-14T00:37:50.483Z,21.40
2023-02-14T00:40:16.956Z,21.39
2023-02-14T00:42:43.323Z,21.40
2023-02-14T00:45:09.656Z,21.41
2023-02-14T00:47:36.031Z,21.41
2023-02-14T00:50:02.355Z,21.40
2023-02-14T00:52:28.669Z,21.41
2023-02-14T00:54:55.045Z,21.41
2023-02-14T00:57:21.372Z,21.40
2023-02-14T00:59:47.707Z,21.39
2023-02-14T01:02:14.212Z,21.39
2023-02-14T01:04:40.601Z,21.42
2023-02-14T01:07:06.913Z,21.42
2023-02-14T01:09:33.227Z,21.41
2023-02-14T01:11:59.604Z,21.40
2023-02-14T01:14:25.971Z,21.42
2023-02-14T01:16:52.403Z,21.40
2023-02-14T01:19:18.736Z,21.42
2023-02-14T01:21:45.110Z,21.39
2023-02-14T01:24:11.460Z,21.39
2023-02-14T01:26:37.816Z,21.39
2023-02-14T01:29:04.204Z,21.43
2023-02-14T01:31:30.653Z,21.41
2023-02-14T01:33:57.084Z,21.43
2023-02-14T01:36:23.430Z,21.43
2023-02-14T01:38:49.762Z,21.46
2023-02-14T01:41:16.091Z,21.43
2023-02-14T01:43:42.393Z,21.40
2023-02-14T01:46:08.768Z,21.41
2023-02-14T01:48:35.164Z,21.42
2023-02-14T01:51:01.768Z,21.42
2023-02-14T01:53:28.318Z,21.42
2023-02-14T01:55:54.623Z,21.44
2023-02-14T01:58:20.999Z,21.44
2023-02-14T02:00:47.337Z,21.46
2023-02-14T02:03:13.717Z,21.42
2023-02-14T02:05:40.043Z,21.38
2023-02-14T02:08:06.436Z,21.40
2023-02-14T02:10:32.815Z,21.39
2023-02-14T02:12:59.132Z,21.43
2023-02-14T02:15:25.455Z,21.41
2023-02-14T02:17:51.774Z,21.41
2023-02-14T02:20:18.079Z,21.41
2023-02-14T02:22:44.411Z,21.37
2023-02-14T02:25:10.715Z,21.43
2023-02-14T02:27:37.027Z,21.39
2023-02-14T02:30:03.459Z,21.44
2023-02-14T02:32:29.821Z,21.40
2023-02-14T02:34:56.218Z,21.43
2023-02-14T02:37:22.552Z,21.41
2023-02-14T02:39:48.927Z,21.39
2023-02-14T02:42:15.308Z,21.41
2023-02-14T02:44:41.712Z,21.40
2023-02-14T02:47:08.111Z,21.43
2023-02-14T02:49:34.489Z,21.42
2023-02-14T02:52:00.799Z,21.47
2023-02-14T02:54:27.115Z,21.44
2023-02-14T02:56:53.474Z,21.41
2023-02-14T02:59:19.814Z,21.41
2023-02-14T03:01:46.218Z,21.42
2023-02-14T03:04:12.673Z,21.43
2023-02-14T03:06:39.033Z,21.45
2023-02-14T03:09:05.380Z,21.43
2023-02-14T03:11:31.718Z,21.46
2023-02-14T03:13:58.070Z,21.46
2023-02-14T03:16:24.411Z,21.42
2023-02-14T03:18:50.774Z,21.45
2023-02-14T03:21:17.152Z,21.44
2023-02-14T03:23:43.546Z,21.42
2023-02-14T03:26:09.870Z,21.43
2023-02-14T03:28:36.241Z,21.41
2023-02-14T03:31:03.150Z,21.45
2023-02-14T03:33:29.797Z,21.40
2023-02-14T03:35:56.211Z,21.40
2023-02-14T03:38:22.589Z,21.37
2023-02-14T03:40:49.100Z,21.40
2023-02-14T03:43:15.492Z,21.41
2023-02-14T03:45:41.855Z,21.43
2023-02-14T03:48:08.171Z,21.39
2023-02-14T03:50:34.499Z,21.38
2023-02-14T03:53:00.861Z,21.43
2023-02-14T03:55:27.222Z,21.42
2023-02-14T03:57:53.725Z,21.42
2023-02-14T04:00:20.055Z,21.42
2023-02-14T04:02:46.404Z,21.38
2023-02-14T04:05:12.743Z,21.39
2023-02-14T04:07:39.092Z,21.42
2023-02-14T04:10:05.420Z,21.42
2023-02-14T04:12:37.709Z,21.41
2023-02-14T04:15:04.478Z,21.39
2023-02-14T04:17:30.810Z,21.41
2023-02-14T04:19:57.189Z,21.42
2023-02-14T04:22:23.581Z,21.39
2023-02-14T04:24:49.951Z,21.40
2023-02-14T04:27:16.308Z,21.40
2023-02-14T04:29:42.710Z,21.41
2023-02-14T04:32:09.163Z,21.42
2023-02-14T04:34:35.651Z,21.40
2023-02-14T04:37:01.993Z,21.43
2023-02-14T04:39:28.314Z,21.41
2023-02-14T04:41:54.688Z,21.42
2023-02-14T04:44:21.006Z,21.43
2023-02-14T04:46:47.454Z,21.42
2023-02-14T04:49:13.831Z,21.44
2023-02-14T04:51:40.158Z,21.41
2023-02-14T04:54:06.526Z,21.45
2023-02-14T04:56:32.882Z,21.44
2023-02-14T04:58:59.260Z,21.46
2023-02-14T05:01:25.592Z,21.42
2023-02-14T05:03:51.959Z,21.44
2023-02-14T05:06:18.347Z,21.43
2023-02-14T05:08:44.654Z,21.44
2023-02-14T05:11:10.972Z,21.43
2023-02-14T05:13:37.300Z,21.40
2023-02-14T05:16:03.617Z,21.42
2023-02-14T05:18:29.959Z,21.43
2023-02-14T05:20:56.308Z,21.43
2023-02-14T05:23:22.667Z,21.38
2023-02-14T05:25:49.032Z,21.39
2023-02-14T05:28:15.531Z,21.37
2023-02-14T05:30:41.973Z,21.38
2023-02-14T05:33:08.456Z,21.40
2023-02-14T05:35:34.787Z,21.39
2023-02-14T05:38:01.125Z,21.41
2023-02-14T05:40:27.444Z,21.44
2023-02-14T05:42:53.824Z,21.41
2023-02-14T05:45:20.201Z,21.44
2023-02-14T05:47:46.529Z,21.42
2023-02-14T05:50:12.862Z,21.36
2023-02-14T05:52:39.239Z,21.37
2023-02-14T05:55:05.605Z,21.39
2023-02-14T05:57:31.965Z,21.39
2023-02-14T05:59:58.302Z,21.35
2023-02-14T06:02:24.681Z,21.38
2023-02-14T06:04:51.090Z,21.35
2023-02-14T06:07:17.497Z,21.33
2023-02-14T06:09:43.843Z,21.36
2023-02-14T06:12:10.196Z,21.40
2023-02-14T06:14:36.532Z,21.40
2023-02-14T06:17:02.925Z,21.39
2023-02-14T06:19:29.337Z,21.43
2023-02-14T06:21:55.711Z,21.41
2023-02-14T06:24:22.045Z,21.42
2023-02-14T06:26:48.542Z,21.37
2023-02-14T06:29:14.919Z,21.42
2023-02-14T06:31:41.325Z,21.38
2023-02-14T06:34:07.844Z,21.39
2023-02-14T06:36:34.161Z,21.38
2023-02-14T06:39:00.537Z,21.36
2023-02-14T06:41:26.880Z,21.40
2023-02-14T06:43:53.216Z,21.42
2023-02-14T06:46:19.624Z,21.42
2023-02-14T06:48:46.062Z,21.37
2023-02-14T06:51:12.416Z,21.41
2023-02-14T06:53:38.773Z,21.43
2023-02-14T06:56:05.112Z,21.41
2023-02-14T06:58:31.484Z,21.36
2023-02-14T07:00:58.053Z,21.38
2023-02-14T07:03:24.553Z,21.41
2023-02-14T07:05:50.917Z,21.43
2023-02-14T07:08:17.302Z,21.38
2023-02-14T07:10:43.620Z,21.39
2023-02-14T07:13:09.987Z,21.41
2023-02-14T07:15:36.333Z,21.42
2023-02-14T07:18:02.690Z,21.40
2023-02-14T07:20:29.065Z,21.41
2023-02-14T07:22:55.464Z,21.44
2023-02-14T07:25:21.875Z,21.41
2023-02-14T07:27:48.252Z,21.41
2023-02-14T07:30:14.655Z,21.40
2023-02-14T07:32:41.095Z,21.39
2023-02-14T07:35:07.427Z,21.42
2023-02-14T07:37:33.785Z,21.45
2023-02-14T07:40:00.207Z,21.49
2023-02-14T07:42:26.588Z,21.55
2023-02-14T07:44:52.945Z,21.65
2023-02-14T07:47:19.310Z,21.72
2023-02-14T07:49:45.629Z,21.78
2023-02-14T07:52:11.992Z,21.83
2023-02-14T07:54:38.386Z,21.86
2023-02-14T07:57:04.750Z,21.95
2023-02-14T07:59:31.081Z,22.03
2023-02-14T08:01:57.514Z,22.07
2023-02-14T08:04:23.903Z,22.13
2023-02-14T08:06:50.240Z,22.14
2023-02-14T08:09:16.577Z,22.20
2023-02-14T08:11:42.924Z,22.17
2023-02-14T08:14:09.294Z,22.26
2023-02-14T08:16:35.965Z,22.28
2023-02-14T08:19:02.509Z,22.28
2023-02-14T08:21:28.887Z,22.32
2023-02-14T08:23:55.239Z,22.27
2023-02-14T08:26:21.567Z,22.29
2023-02-14T08:28:47.932Z,22.36
2023-02-14T08:31:15.904Z,22.42
2023-02-14T08:33:43.651Z,22.42
2023-02-14T08:36:09.999Z,22.45
2023-02-14T08:38:36.354Z,22.45
2023-02-14T08:41:05.847Z,22.48
2023-02-14T08:43:34.396Z,22.48
2023-02-14T08:46:01.088Z,22.48
2023-02-14T08:48:27.746Z,22.57
2023-02-14T08:50:54.204Z,22.56
2023-02-14T08:53:20.583Z,22.50
2023-02-14T08:55:46.970Z,22.57
2023-02-14T08:58:13.354Z,22.60
2023-02-14T09:00:39.772Z,22.56
2023-02-14T09:03:06.150Z,22.50
2023-02-14T09:05:32.528Z,22.55
2023-02-14T09:07:58.952Z,22.56
2023-02-14T09:10:25.369Z,22.70
2023-02-14T09:12:51.753Z,22.49
2023-02-14T09:15:18.158Z,22.44
2023-02-14T09:17:44.534Z,22.59
2023-02-14T09:20:10.950Z,22.54
2023-02-14T09:22:37.345Z,22.58
2023-02-14T09:25:03.729Z,22.64
2023-02-14T09:27:30.123Z,22.62
2023-02-14T09:29:56.514Z,22.67
2023-02-14T09:32:22.951Z,22.66
2023-02-14T09:34:49.360Z,22.62
2023-02-14T09:37:15.670Z,22.58
2023-02-14T09:39:41.992Z,22.65
2023-02-14T09:42:08.316Z,22.66
2023-02-14T09:44:34.673Z,22.70
2023-02-14T09:47:01.041Z,22.70
2023-02-14T09:49:27.513Z,22.60
2023-02-14T09:51:54.034Z,22.73
2023-02-14T09:54:20.426Z,22.69
2023-02-14T09:56:51.302Z,22.67
2023-02-14T09:59:18.310Z,22.62
2023-02-14T10:01:44.691Z,22.69
2023-02-14T10:04:11.042Z,22.67
2023-02-14T10:06:37.364Z,22.65
2023-02-14T10:09:03.704Z,22.72
2023-02-14T10:11:30.039Z,22.66
2023-02-14T10:13:56.394Z,22.74
2023-02-14T10:16:24.095Z,22.76
2023-02-14T10:18:52.083Z,22.75
2023-02-14T10:21:18.471Z,22.67
2023-02-14T10:23:44.875Z,22.77
2023-02-14T10:26:11.201Z,22.67
2023-02-14T10:28:37.564Z,22.72
2023-02-14T10:31:04.155Z,22.70
2023-02-14T10:33:30.598Z,22.67
2023-02-14T10:35:56.970Z,22.59
2023-02-14T10:38:23.432Z,22.66
2023-02-14T10:40:49.748Z,22.62
2023-02-14T10:43:16.120Z,22.66
2023-02-14T10:45:42.483Z,22.56
2023-02-14T10:48:08.811Z,22.62
2023-02-14T10:50:35.194Z,22.66
2023-02-14T10:53:01.576Z,22.58
2023-02-14T10:55:32.455Z,22.55
2023-02-14T10:57:59.315Z,22.52
2023-02-14T11:00:25.639Z,22.59
2023-02-14T11:02:51.960Z,22.47
2023-02-14T11:05:18.306Z,22.58
2023-02-14T11:07:44.691Z,22.56
2023-02-14T11:10:11.087Z,22.58
2023-02-14T11:12:37.460Z,22.55
2023-02-14T11:15:03.861Z,22.46
2023-02-14T11:17:30.212Z,22.46
2023-02-14T11:19:56.566Z,22.50
2023-02-14T11:22:22.947Z,22.56
2023-02-14T11:24:49.320Z,22.56
2023-02-14T11:27:15.726Z,22.52
2023-02-14T11:29:42.091Z,22.43
2023-02-14T11:32:08.479Z,22.50
2023-02-14T11:34:34.856Z,22.56
2023-02-14T11:37:01.196Z,22.48
2023-02-14T11:39:27.523Z,22.40
2023-02-14T11:41:53.890Z,22.39
2023-02-14T11:44:20.211Z,22.41
2023-02-14T11:46:53.135Z,22.29
2023-02-14T11:49:20.135Z,22.28
2023-02-14T11:51:46.503Z,22.34
2023-02-14T11:54:12.831Z,22.41
2023-02-14T11:56:39.149Z,22.38
2023-02-14T11:59:05.540Z,22.36
2023-02-14T12:01:31.891Z,22.33
2023-02-14T12:03:58.336Z,22.30
2023-02-14T12:06:24.744Z,22.27
2023-02-14T12:08:51.064Z,22.35
2023-02-14T12:11:17.383Z,22.22
2023-02-14T12:13:43.705Z,22.32
2023-02-14T12:16:10.103Z,22.23
2023-02-14T12:18:36.552Z,22.26
2023-02-14T12:21:03.159Z,22.25
2023-02-14T12:23:29.566Z,22.20
2023-02-14T12:25:55.907Z,22.23
2023-02-14T12:28:22.386Z,22.22
2023-02-14T12:30:48.735Z,22.26
2023-02-14T12:33:15.093Z,22.25
2023-02-14T12:35:41.450Z,22.22
2023-02-14T12:38:07.762Z,22.29
2023-02-14T12:40:34.128Z,22.25
2023-02-14T12:43:00.533Z,22.35
2023-02-14T12:45:26.942Z,22.24
2023-02-14T12:47:53.266Z,22.29
2023-02-14T12:50:19.589Z,22.20
2023-02-14T12:52:45.899Z,22.27
2023-02-14T12:55:12.207Z,22.25
2023-02-14T12:57:38.538Z,22.25
2023-02-14T13:00:04.885Z,22.33
2023-02-14T13:02:31.349Z,22.25
2023-02-14T13:04:57.732Z,22.22
2023-02-14T13:07:24.066Z,22.27
2023-02-14T13:09:50.401Z,22.18
2023-02-14T13:12:16.915Z,22.21
2023-02-14T13:14:43.243Z,22.28
2023-02-14T13:17:09.614Z,22.19
2023-02-14T13:19:35.980Z,22.18
2023-02-14T13:22:02.352Z,22.11
2023-02-14T13:24:28.679Z,22.21
2023-02-14T13:26:55.033Z,22.20
2023-02-14T13:29:21.424Z,22.14
2023-02-14T13:31:47.846Z,22.16
2023-02-14T13:34:14.266Z,22.10
2023-02-14T13:36:40.624Z,22.07
2023-02-14T13:39:07.015Z,22.08
2023-02-14T13:41:33.548Z,22.05
2023-02-14T13:43:59.897Z,22.03
2023-02-14T13:46:26.269Z,22.06
2023-02-14T13:48:52.829Z,22.04
2023-02-14T13:51:19.219Z,22.04
2023-02-14T13:53:45.593Z,22.09
2023-02-14T13:56:11.969Z,22.01
2023-02-14T13:58:38.294Z,22.01
2023-02-14T14:01:04.706Z,22.03
2023-02-14T14:03:31.469Z,22.02
2023-02-14T14:05:58.101Z,22.01
2023-02-14T14:08:24.675Z,21.99
2023-02-14T14:10:51.079Z,22.02
2023-02-14T14:13:17.474Z,22.00
2023-02-14T14:15:43.834Z,21.98
2023-02-14T14:18:10.161Z,21.96
2023-02-14T14:20:36.473Z,21.98
2023-02-14T14:23:02.839Z,21.94
2023-02-14T14:25:37.726Z,22.02
2023-02-14T14:28:04.048Z,21.92
2023-02-14T14:30:30.536Z,21.97
2023-02-14T14:32:57.032Z,21.92
2023-02-14T14:35:23.410Z,21.89
2023-02-14T14:37:49.825Z,21.91
2023-02-14T14:40:16.275Z,21.90
2023-02-14T14:42:42.610Z,21.82
2023-02-14T14:45:08.981Z,21.87
2023-02-14T14:47:35.342Z,21.86
2023-02-14T14:50:01.715Z,21.86
2023-02-14T14:52:28.103Z,21.86
2023-02-14T14:54:54.414Z,21.84
2023-02-14T14:57:20.779Z,21.82
2023-02-14T14:59:47.178Z,21.81
2023-02-14T15:02:13.504Z,21.81
2023-02-14T15:04:39.898Z,21.81
2023-02-14T15:07:06.283Z,21.85
2023-02-14T15:09:32.664Z,21.83
2023-02-14T15:11:58.990Z,21.79
2023-02-14T15:14:25.441Z,21.78
2023-02-14T15:16:51.861Z,21.79
2023-02-14T15:19:18.253Z,21.80
2023-02-14T15:21:44.897Z,21.78
2023-02-14T15:24:11.244Z,21.80
2023-02-14T15:26:37.586Z,21.77
2023-02-14T15:29:03.967Z,21.81
2023-02-14T15:31:30.471Z,21.80
2023-02-14T15:33:56.958Z,21.78
2023-02-14T15:36:24.176Z,21.76
2023-02-14T15:38:50.506Z,21.79
2023-02-14T15:41:16.876Z,21.78
2023-02-14T15:43:43.274Z,21.79
2023-02-14T15:46:09.649Z,21.81
2023-02-14T15:48:36.011Z,21.79
2023-02-14T15:51:02.555Z,21.81
2023-02-14T15:53:28.999Z,21.76
2023-02-14T15:55:55.353Z,21.80
2023-02-14T15:58:21.696Z,21.77
2023-02-14T16:00:48.027Z,21.76
2023-02-14T16:03:14.415Z,21.76
2023-02-14T16:05:40.730Z,21.75
2023-02-14T16:08:07.052Z,21.74
2023-02-14T16:10:33.436Z,21.76
2023-02-14T16:12:59.792Z,21.77
2023-02-14T16:15:26.226Z,21.77
2023-02-14T16:17:52.633Z,21.75
2023-02-14T16:20:18.952Z,21.74
2023-02-14T16:22:45.265Z,21.74
2023-02-14T16:25:11.612Z,21.78
2023-02-14T16:27:37.957Z,21.79
2023-02-14T16:30:04.470Z,21.78
2023-02-14T16:32:30.969Z,21.76
2023-02-14T16:34:57.352Z,21.74
2023-02-14T16:37:23.716Z,21.71
2023-02-14T16:39:50.071Z,21.72
2023-02-14T16:42:16.442Z,21.72
2023-02-14T16:44:42.859Z,21.71
2023-02-14T16:47:09.241Z,21.71
2023-02-14T16:49:35.611Z,21.69
2023-02-14T16:52:01.958Z,21.75
2023-02-14T16:54:28.258Z,21.69
2023-02-14T16:56:54.616Z,21.66
2023-02-14T16:59:20.947Z,21.62
2023-02-14T17:01:47.370Z,21.67
2023-02-14T17:04:13.964Z,21.69
2023-02-14T17:06:40.333Z,21.66
2023-02-14T17:09:06.715Z,21.69
2023-02-14T17:11:33.063Z,21.72
2023-02-14T17:13:59.435Z,21.70
2023-02-14T17:16:25.859Z,21.69
2023-02-14T17:18:52.207Z,21.71
2023-02-14T17:21:18.548Z,21.70
2023-02-14T17:23:44.930Z,21.76
2023-02-14T17:26:11.339Z,21.68
2023-02-14T17:28:37.659Z,21.71
2023-02-14T17:31:04.582Z,21.73
2023-02-14T17:33:31.146Z,21.77
2023-02-14T17:35:57.522Z,21.70
2023-02-14T17:38:23.885Z,21.75
2023-02-14T17:40:50.269Z,21.76
2023-02-14T17:43:16.597Z,21.73
2023-02-14T17:45:42.978Z,21.73
2023-02-14T17:48:11.677Z,21.77
2023-02-14T17:50:38.169Z,21.76
2023-02-14T17:53:04.651Z,21.71
2023-02-14T17:55:31.030Z,21.66
2023-02-14T17:57:57.385Z,21.70
2023-02-14T18:00:23.740Z,21.71
2023-02-14T18:02:50.095Z,21.75
2023-02-14T18:05:16.465Z,21.72
2023-02-14T18:07:42.792Z,21.70
2023-02-14T18:10:09.144Z,21.69
2023-02-14T18:12:35.524Z,21.69
2023-02-14T18:15:01.841Z,21.65
2023-02-14T18:17:28.224Z,21.65
2023-02-14T18:19:54.624Z,21.70
2023-02-14T18:22:20.955Z,21.74
2023-02-14T18:24:47.316Z,21.69
2023-02-14T18:27:13.660Z,21.72
2023-02-14T18:29:40.018Z,21.64
2023-02-14T18:32:06.481Z,21.71
2023-02-14T18:34:32.933Z,21.66
2023-02-14T18:36:59.335Z,21.67
2023-02-14T18:39:25.702Z,21.70
2023-02-14T18:41:52.069Z,21.70
2023-02-14T18:44:18.450Z,21.70
2023-02-14T18:46:44.823Z,21.71
2023-02-14T18:49:11.188Z,21.72
2023-02-14T18:51:37.558Z,21.71
2023-02-14T18:54:03.862Z,21.65
2023-02-14T18:56:30.240Z,21.71
2023-02-14T18:58:56.571Z,21.66
2023-02-14T19:01:22.944Z,21.66
2023-02-14T19:03:49.366Z,21.69
2023-02-14T19:06:15.691Z,21.73
2023-02-14T19:08:42.060Z,21.71
2023-02-14T19:11:08.433Z,21.73
2023-02-14T19:13:34.763Z,21.75
2023-02-14T19:16:01.173Z,21.72
2023-02-14T19:18:27.529Z,21.75
2023-02-14T19:20:53.853Z,21.75
2023-02-14T19:23:20.252Z,21.72
2023-02-14T19:25:46.658Z,21.74
2023-02-14T19:28:13.023Z,21.73
2023-02-14T19:30:39.409Z,21.76
2023-02-14T19:33:05.864Z,21.75
2023-02-14T19:35:32.529Z,21.77
2023-02-14T19:37:58.910Z,21.72
2023-02-14T19:40:25.288Z,21.68
2023-02-14T19:42:52.129Z,21.65
2023-02-14T19:45:18.531Z,21.66
2023-02-14T19:47:47.395Z,21.74
2023-02-14T19:50:14.013Z,21.72
2023-02-14T19:52:40.419Z,21.71
2023-02-14T19:55:06.742Z,21.68
2023-02-14T19:57:33.117Z,21.69
2023-02-14T19:59:59.443Z,21.67
2023-02-14T20:02:25.822Z,21.71
2023-02-14T20:04:52.149Z,21.68
2023-02-14T20:07:18.497Z,21.66
2023-02-14T20:09:44.816Z,21.69
2023-02-14T20:12:11.213Z,21.72
2023-02-14T20:14:50.393Z,21.70
2023-02-14T20:17:17.918Z,21.74
2023-02-14T20:19:44.327Z,21.71
2023-02-14T20:22:10.646Z,21.70
2023-02-14T20:24:36.998Z,21.66
2023-02-14T20:27:03.356Z,21.68
2023-02-14T20:29:29.684Z,21.66
2023-02-14T20:31:56.094Z,21.68
2023-02-14T20:34:22.483Z,21.63
2023-02-14T20:36:48.853Z,21.65
2023-02-14T20:39:15.247Z,21.67
2023-02-14T20:41:41.626Z,21.69
2023-02-14T20:44:08.041Z,21.71
2023-02-14T20:46:34.424Z,21.71
2023-02-14T20:49:00.804Z,21.71
2023-02-14T20:51:27.179Z,21.70
2023-02-14T20:53:53.495Z,21.70
2023-02-14T20:56:19.835Z,21.69
2023-02-14T20:58:46.185Z,21.66
2023-02-14T21:01:12.520Z,21.66
2023-02-14T21:03:38.927Z,21.66
2023-02-14T21:06:05.275Z,21.65
2023-02-14T21:08:31.704Z,21.69
2023-02-14T21:10:58.182Z,21.70
2023-02-14T21:13:24.686Z,21.65
2023-02-14T21:15:51.154Z,21.69
2023-02-14T21:18:17.565Z,21.65
2023-02-14T21:20:43.954Z,21.64
2023-02-14T21:23:10.301Z,21.68
2023-02-14T21:25:36.670Z,21.66
2023-02-14T21:28:02.984Z,21.71
2023-02-14T21:30:29.404Z,21.70
2023-02-14T21:32:55.764Z,21.70
2023-02-14T21:35:22.121Z,21.66
2023-02-14T21:37:48.495Z,21.64
2023-02-14T21:40:14.860Z,21.67
2023-02-14T21:42:41.200Z,21.71
2023-02-14T21:45:07.522Z,21.70
2023-02-14T21:47:33.824Z,21.66
2023-02-14T21:50:00.179Z,21.71
2023-02-14T21:52:26.589Z,21.65
2023-02-14T21:54:52.955Z,21.64
2023-02-14T21:57:19.347Z,21.65
2023-02-14T21:59:45.774Z,21.67
2023-02-14T22:02:12.094Z,21.68
2023-02-14T22:04:38.438Z,21.68
2023-02-14T22:07:04.804Z,21.68
2023-02-14T22:09:31.133Z,21.71
2023-02-14T22:11:57.453Z,21.70
2023-02-14T22:14:23.835Z,21.73
2023-02-14T22:16:50.174Z,21.71
2023-02-14T22:19:16.538Z,21.68
2023-02-14T22:21:42.871Z,21.69
2023-02-14T22:24:11.316Z,21.71
2023-02-14T22:26:37.779Z,21.70
2023-02-14T22:29:04.116Z,21.73
2023-02-14T22:31:30.515Z,21.74
2023-02-14T22:33:56.943Z,21.75
2023-02-14T22:36:23.321Z,21.72
2023-02-14T22:38:49.652Z,21.69
2023-02-14T22:41:16.097Z,21.72
2023-02-14T22:43:42.496Z,21.70
2023-02-14T22:46:08.975Z,21.71
2023-02-14T22:48:35.372Z,21.72
2023-02-14T22:51:01.701Z,21.73
2023-02-14T22:53:28.047Z,21.70
2023-02-14T22:55:54.400Z,21.72
2023-02-14T22:58:20.740Z,21.70
2023-02-14T23:00:47.088Z,21.67
2023-02-14T23:03:13.456Z,21.72
2023-02-14T23:05:39.836Z,21.68
2023-02-14T23:08:06.212Z,21.73
2023-02-14T23:10:32.569Z,21.72
2023-02-14T23:12:58.946Z,21.70
2023-02-14T23:15:25.282Z,21.73
2023-02-14T23:17:51.605Z,21.72
2023-02-14T23:20:17.988Z,21.74
2023-02-14T23:22:44.316Z,21.75
2023-02-14T23:25:10.636Z,21.75
2023-02-14T23:27:37.043Z,21.72
2023-02-14T23:30:03.527Z,21.70
2023-02-14T23:32:29.941Z,21.69
2023-02-14T23:34:56.278Z,21.74
2023-02-14T23:37:22.652Z,21.73
2023-02-14T23:39:49.042Z,21.72
2023-02-14T23:42:15.422Z,21.71
2023-02-14T23:44:41.786Z,21.73
2023-02-14T23:47:08.117Z,21.72
2023-02-14T23:49:34.502Z,21.69
2023-02-14T23:52:00.844Z,21.70
2023-02-14T23:54:27.183Z,21.71
2023-02-14T23:56:53.572Z,21.69
2023-02-14T23:59:19.991Z,21.66
